Latest Weather Observations for Kurnell

IDN60901

Issued at 3:01 am EST Thursday 29 September 2016 (issued every 10 minutes, with the page automatically refreshed every 10 minutes)

About weather observations | Map of Sydney area stations | Latest observations for Sydney area | Other Formats
Station Details ID: 066043 Name: KURNELL AWS Lat: -34.00 Lon: 151.21 Height: 4.0 m
Data from the previous 72 hours. | See also: Recent months for locations in New South Wales
Date/Time
EST
Temp
°C
App
Temp
°C
Dew
Point
°C
Rel
Hum
%
Delta-T
°C
Wind Press
QNH
hPa
Press
MSL
hPa
Rain since
9am
mm
Dir  Spd
km/h
Gust
km/h
Spd
kts
Gust
kts
29/03:00am - - - - - NNW 13 15 7 8 - - -
29/02:30am - - - - - NNW 11 13 6 7 - - -
29/02:00am - - - - - NW 15 17 8 9 - - -
29/01:30am - - - - - NW 17 19 9 10 - - -
29/01:00am - - - - - NNW 17 20 9 11 - - -
29/12:30am - - - - - NNW 13 17 7 9 - - -
29/12:00am - - - - - NNW 13 15 7 8 - - -
 
Date/Time
EST
Temp
°C
App
Temp
°C
Dew
Point
°C
Rel
Hum
%
Delta-T
°C
Wind Press
QNH
hPa
Press
MSL
hPa
Rain since
9am
mm
Dir  Spd
km/h
Gust
km/h
Spd
kts
Gust
kts
28/11:30pm - - - - - N 15 19 8 10 - - -
28/11:00pm - - - - - NNE 28 39 15 21 - - -
28/10:30pm - - - - - NNE 28 35 15 19 - - -
28/10:00pm - - - - - NE 32 37 17 20 - - -
28/09:30pm - - - - - NE 26 33 14 18 - - -
28/09:00pm - - - - - NE 28 33 15 18 - - -
28/08:30pm - - - - - NE 26 30 14 16 - - -
28/08:00pm - - - - - NE 24 28 13 15 - - -
28/07:30pm - - - - - ENE 24 30 13 16 - - -
28/07:00pm - - - - - ENE 22 28 12 15 - - -
28/06:30pm - - - - - ENE 22 28 12 15 - - -
28/06:00pm - - - - - ENE 20 26 11 14 - - -
28/05:30pm - - - - - ENE 20 26 11 14 - - -
28/05:00pm - - - - - E 20 26 11 14 - - -
28/04:30pm - - - - - E 20 28 11 15 - - -
28/04:00pm - - - - - E 19 24 10 13 - - -
28/03:30pm - - - - - E 17 22 9 12 - - -
28/03:00pm - - - - - ESE 17 24 9 13 - - -
28/02:30pm - - - - - ESE 19 26 10 14 - - -
28/02:00pm - - - - - ESE 17 24 9 13 - - -
28/01:30pm - - - - - SE 17 24 9 13 - - -
28/01:00pm - - - - - SE 17 26 9 14 - - -
28/12:30pm - - - - - SSE 15 24 8 13 - - -
28/12:00pm - - - - - SSE 9 20 5 11 - - -
28/11:30am - - - - - SSW 13 24 7 13 - - -
28/11:00am - - - - - SSW 15 26 8 14 - - -
28/10:30am - - - - - S 17 26 9 14 - - -
28/10:00am - - - - - S 19 28 10 15 - - -
28/09:30am - - - - - W 13 22 7 12 - - -
28/09:00am - - - - - NW 15 17 8 9 - - -
28/08:30am - - - - - WNW 17 20 9 11 - - -
28/08:00am - - - - - WNW 20 24 11 13 - - -
28/07:30am - - - - - W 20 24 11 13 - - -
28/07:00am - - - - - W 19 26 10 14 - - -
28/06:30am - - - - - W 19 24 10 13 - - -
28/06:00am - - - - - WNW 22 26 12 14 - - -
28/05:30am - - - - - W 22 28 12 15 - - -
28/05:00am - - - - - W 22 28 12 15 - - -
28/04:30am - - - - - W 26 30 14 16 - - -
28/04:00am - - - - - W 30 37 16 20 - - -
28/03:30am - - - - - WSW 28 33 15 18 - - -
28/03:00am - - - - - W 30 35 16 19 - - -
28/02:30am - - - - - W 28 33 15 18 - - -
28/02:00am - - - - - W 28 32 15 17 - - -
28/01:30am - - - - - W 20 26 11 14 - - -
28/01:00am - - - - - W 24 30 13 16 - - -
28/12:30am - - - - - WSW 19 26 10 14 - - -
28/12:00am - - - - - WSW 13 19 7 10 - - -
 
Date/Time
EST
Temp
°C
App
Temp
°C
Dew
Point
°C
Rel
Hum
%
Delta-T
°C
Wind Press
QNH
hPa
Press
MSL
hPa
Rain since
9am
mm
Dir  Spd
km/h
Gust
km/h
Spd
kts
Gust
kts
27/11:30pm - - - - - WSW 19 24 10 13 - - -
27/11:00pm - - - - - SW 19 28 10 15 - - -
27/10:30pm - - - - - SW 17 22 9 12 - - -
27/10:00pm - - - - - WSW 20 26 11 14 - - -
27/09:30pm - - - - - SW 15 19 8 10 - - -
27/09:00pm - - - - - WSW 19 24 10 13 - - -
27/08:30pm - - - - - WSW 17 22 9 12 - - -
27/08:00pm - - - - - WSW 30 39 16 21 - - -
27/07:30pm - - - - - WSW 20 26 11 14 - - -
27/07:00pm - - - - - WSW 26 33 14 18 - - -
27/06:30pm - - - - - WSW 26 33 14 18 - - -
27/06:00pm - - - - - WSW 32 39 17 21 - - -
27/05:30pm - - - - - WSW 43 52 23 28 - - -
27/05:00pm - - - - - W 44 61 24 33 - - -
27/04:31pm - - - - - W 46 70 25 38 - - -
27/04:30pm - - - - - WSW 44 57 24 31 - - -
27/04:24pm - - - - - W 44 63 24 34 - - -
27/04:00pm - - - - - WSW 39 50 21 27 - - -
27/03:30pm - - - - - WSW 43 54 23 29 - - -
27/03:00pm - - - - - WSW 39 52 21 28 - - -
27/02:55pm - - - - - WSW 41 59 22 32 - - -
27/02:30pm - - - - - WSW 43 54 23 29 - - -
27/02:00pm - - - - - W 43 52 23 28 - - -
27/01:30pm - - - - - WSW 46 65 25 35 - - -
27/01:00pm - - - - - W 37 48 20 26 - - -
27/12:30pm - - - - - WSW 32 46 17 25 - - -
27/12:07pm - - - - - W 33 54 18 29 - - -
27/12:00pm - - - - - W 32 39 17 21 - - -
27/11:54am - - - - - WNW 28 39 15 21 - - -
27/11:30am - - - - - WNW 17 20 9 11 - - -
27/11:00am - - - - - NNW 11 22 6 12 - - -
27/10:30am - - - - - N 17 22 9 12 - - -
27/10:00am - - - - - N 22 30 12 16 - - -
27/09:30am - - - - - N 22 28 12 15 - - -
27/09:00am - - - - - N 24 30 13 16 - - -
27/08:30am - - - - - N 15 20 8 11 - - -
27/08:00am - - - - - N 19 26 10 14 - - -
27/07:30am - - - - - NW 20 24 11 13 - - -
27/07:00am - - - - - NNW 17 20 9 11 - - -
27/06:30am - - - - - N 13 15 7 8 - - -
27/06:00am - - - - - NNW 15 20 8 11 - - -
27/05:30am - - - - - NW 17 20 9 11 - - -
27/05:00am - - - - - NW 22 26 12 14 - - -
27/04:30am - - - - - NW 24 28 13 15 - - -
27/04:00am - - - - - NW 26 32 14 17 - - -
27/03:30am - - - - - WNW 22 26 12 14 - - -
27/03:00am - - - - - WNW 28 32 15 17 - - -
27/02:30am - - - - - WNW 26 30 14 16 - - -
27/02:00am - - - - - WNW 30 33 16 18 - - -
27/01:30am - - - - - W 32 39 17 21 - - -
27/01:00am - - - - - W 28 33 15 18 - - -
27/12:30am - - - - - W 28 33 15 18 - - -
27/12:00am - - - - - WNW 30 32 16 17 - - -
 
Date/Time
EST
Temp
°C
App
Temp
°C
Dew
Point
°C
Rel
Hum
%
Delta-T
°C
Wind Press
QNH
hPa
Press
MSL
hPa
Rain since
9am
mm
Dir  Spd
km/h
Gust
km/h
Spd
kts
Gust
kts
26/11:30pm - - - - - WNW 26 30 14 16 - - -
26/11:00pm - - - - - WNW 26 30 14 16 - - -
26/10:30pm - - - - - WNW 28 33 15 18 - - -
26/10:00pm - - - - - WNW 24 28 13 15 - - -
26/09:30pm - - - - - WNW 26 28 14 15 - - -
26/09:00pm - - - - - W 24 30 13 16 - - -
26/08:30pm - - - - - W 15 17 8 9 - - -
26/08:00pm - - - - - WSW 11 17 6 9 - - -
26/07:30pm - - - - - SW 9 11 5 6 - - -
26/07:00pm - - - - - SW 11 15 6 8 - - -
26/06:30pm - - - - - SW 9 13 5 7 - - -
26/06:00pm - - - - - SW 13 15 7 8 - - -
26/05:30pm - - - - - S 13 15 7 8 - - -
26/05:00pm - - - - - S 17 20 9 11 - - -
26/04:30pm - - - - - S 15 22 8 12 - - -
26/04:00pm - - - - - SSE 15 20 8 11 - - -
26/03:30pm - - - - - SE 19 26 10 14 - - -
26/03:00pm - - - - - SE 19 26 10 14 - - -
26/02:30pm - - - - - SE 19 26 10 14 - - -
26/02:00pm - - - - - SE 19 26 10 14 - - -
26/01:30pm - - - - - SE 17 22 9 12 - - -
26/01:00pm - - - - - SSE 19 26 10 14 - - -
26/12:30pm - - - - - SE 19 26 10 14 - - -
26/12:00pm - - - - - SSE 17 26 9 14 - - -
26/11:30am - - - - - S 17 24 9 13 - - -
26/11:00am - - - - - SSW 17 28 9 15 - - -
26/10:30am - - - - - WSW 20 28 11 15 - - -
26/10:00am - - - - - SW 24 32 13 17 - - -
26/09:30am - - - - - W 26 35 14 19 - - -
26/09:00am - - - - - WSW 28 33 15 18 - - -
26/08:30am - - - - - W 26 37 14 20 - - -
26/08:00am - - - - - W 32 35 17 19 - - -
26/07:30am - - - - - W 32 35 17 19 - - -
26/07:00am - - - - - W 30 35 16 19 - - -
26/06:30am - - - - - WSW 32 39 17 21 - - -
26/06:00am - - - - - WSW 24 33 13 18 - - -
26/05:30am - - - - - WSW 26 33 14 18 - - -
26/05:00am - - - - - SW 22 30 12 16 - - -
26/04:30am - - - - - SW 22 30 12 16 - - -
26/04:00am - - - - - SW 26 32 14 17 - - -
26/03:30am - - - - - SW 22 28 12 15 - - -

Latest Capital City Observations: Canberra | Sydney | Melbourne | Brisbane | Adelaide | Perth | Hobart | Darwin

Other Formats:

Comma delimited format used in spreadsheet applications
http://www.bom.gov.au/fwo/IDN60901/IDN60901.95756.axf

JavaScript Object Notation format (JSON) in row-major order
http://www.bom.gov.au/fwo/IDN60901/IDN60901.95756.json